Ed's Weather Station

Ed's Weather Station
Located south of Fulton, MO
Lat. 38.75234 N
Lon. 91.96758 W
Elevation 787 ft

GR3 Radar

Current 24 Hours Yesterday Last 48 Hours Last 72 Hours Last 30 Days Yearly Rainfall Yearly Temp Trends Monthly Wind Direction Last 30 Days Temperature Solar Data
Highs and Lows Trends Sun & Moon Rise\Set Times Moon\Solar Info
Local Weather Advisories Area Forecast Discussion Hazardous Weather Outlook U.S. Severe Weather Storm Prediction Center
All Time Records Monthly Records Yearly Records
Weather Gauges MW Weather Network
Local Area Conditions Printable Weather Flyer MO River Information
About Ed's Weather Weather Station Status Weather Graphic Personal Weather Sites
Kansas City NEXRAD Radar Local/Regional Radar Satellite Images
Weather Underground Data Rain Detail Chart
NWS Forecast Details Ed's Forecast Details UV Forecast Pollen Forecast Space Weather
Member of the following organizations:





Local Links:
Callaway County Sheriff

Eds Weather Station - WU Station History
Station Historical Data
Daily Summary for November 8, 2018 Units:  English    Metric   Both
« Previous Day
Next Day »
Daily Weekly Monthly Yearly Custom
  High: Low: Average:
Temperature: TemperatureF °F 31.1 °F 34.8 °F
Dew Point: DewpointF °F 28.2 °F 30.5 °F
Humidity: Humidity% 71% 84%
Wind Speed: WindSpeedMPHmph 0.0mph 4.6mph
Wind Gust: WindSpeedGustMPHmph - -
Wind- - ESE
Pressure: PressureIn in 30.20 in -
Precipitation: 0.00 in    
Historical Graphs
 
 
Tabular Data for November 8, 2018
Time Temperature Dew Point Pressure Wind Wind Speed Wind Gust Humidity Rainfall Rate (Hourly) solar Conditions
TemperatureF °F DewpointF °F PressureIn in Calm     Humidity% HourlyPrecipIn in SolarRadiationWatts/m^2 W/m2 Conditions
00:04 35.1 °F 31.9 °F 30.32 in NNE 3.5 mph 2.1 mph 88% 0.00 in 0.00 W/m2 SCT
00:09 35.0 °F 31.5 °F 30.31 in NNW 11.5 mph 7.2 mph 87% 0.00 in 0.00 W/m2 SCT
00:14 34.9 °F 31.4 °F 30.31 in NNW 5.8 mph 2.8 mph 87% 0.00 in 0.00 W/m2 SCT
00:19 34.7 °F 31.2 °F 30.31 in North 4.6 mph 2.8 mph 87% 0.00 in 0.00 W/m2 SCT
00:24 34.7 °F 31.5 °F 30.32 in NW 5.0 mph 2.8 mph 88% 0.00 in 0.00 W/m2 SCT
00:29 34.6 °F 31.4 °F 30.32 in North 8.0 mph 4.8 mph 88% 0.00 in 0.00 W/m2 SCT
00:34 34.5 °F 31.3 °F 30.32 in North 3.5 mph 0.6 mph 88% 0.00 in 0.00 W/m2 SCT
00:39 34.4 °F 31.2 °F 30.32 in NNE 8.1 mph 2.8 mph 88% 0.00 in 0.00 W/m2 SCT
00:44 34.3 °F 30.8 °F 30.32 in North 6.9 mph 3.6 mph 87% 0.00 in 0.00 W/m2 SCT
00:49 34.2 °F 30.7 °F 30.32 in NNE 3.5 mph 1.5 mph 87% 0.00 in 0.00 W/m2 SCT
00:54 34.1 °F 30.6 °F 30.32 in West 3.5 mph 2.1 mph 87% 0.00 in 0.00 W/m2 SCT
00:59 34.0 °F 30.5 °F 30.32 in NNW 4.6 mph 3.6 mph 87% 0.00 in 0.00 W/m2 SCT
01:04 33.9 °F 30.4 °F 30.31 in North 3.5 mph 2.7 mph 87% 0.00 in 0.00 W/m2 BKN
01:09 33.9 °F 30.7 °F 30.31 in NNW 5.8 mph 3.5 mph 88% 0.00 in 0.00 W/m2 BKN
01:14 33.8 °F 30.6 °F 30.31 in North 3.5 mph 2.0 mph 88% 0.00 in 0.00 W/m2 BKN
01:19 33.9 °F 30.7 °F 30.31 in NNE 8.1 mph 3.0 mph 88% 0.00 in 0.00 W/m2 BKN
01:24 33.7 °F 30.2 °F 30.31 in North 8.0 mph 5.7 mph 87% 0.00 in 0.00 W/m2 BKN
01:29 33.6 °F 30.1 °F 30.31 in NNE 5.8 mph 2.8 mph 87% 0.00 in 0.00 W/m2 BKN
01:34 33.5 °F 30.0 °F 30.31 in North 4.6 mph 3.5 mph 87% 0.00 in 0.00 W/m2 BKN
01:39 33.5 °F 30.3 °F 30.32 in NNE 3.5 mph 2.9 mph 88% 0.00 in 0.00 W/m2 BKN
01:44 33.4 °F 29.9 °F 30.32 in NNE 4.0 mph 2.8 mph 87% 0.00 in 0.00 W/m2 BKN
01:49 33.3 °F 29.8 °F 30.32 in NNE 4.6 mph 3.6 mph 87% 0.00 in 0.00 W/m2 BKN
01:54 33.3 °F 30.1 °F 30.32 in NNE 3.5 mph 2.6 mph 88% 0.00 in 0.00 W/m2 BKN
01:59 33.3 °F 30.1 °F 30.32 in NNW 5.8 mph 3.3 mph 88% 0.00 in 0.00 W/m2 BKN
02:04 33.2 °F 30.0 °F 30.33 in NNE 3.5 mph 2.1 mph 88% 0.00 in 0.00 W/m2 OVC
02:09 33.2 °F 29.8 °F 30.33 in North 6.9 mph 3.9 mph 87% 0.00 in 0.00 W/m2 OVC
02:14 33.2 °F 29.8 °F 30.33 in NNE 2.3 mph 0.1 mph 87% 0.00 in 0.00 W/m2 OVC
02:19 33.2 °F 30.0 °F 30.33 in North 10.4 mph 2.9 mph 88% 0.00 in 0.00 W/m2 OVC
02:24 33.0 °F 29.6 °F 30.33 in NE 3.5 mph 1.6 mph 87% 0.00 in 0.00 W/m2 OVC
02:29 33.0 °F 29.6 °F 30.33 in NNE 6.9 mph 3.6 mph 87% 0.00 in 0.00 W/m2 OVC
02:34 33.0 °F 29.6 °F 30.34 in North 8.1 mph 3.4 mph 87% 0.00 in 0.00 W/m2 OVC
02:39 32.9 °F 29.5 °F 30.33 in North 10.4 mph 4.3 mph 87% 0.00 in 0.00 W/m2 OVC
02:44 32.9 °F 29.5 °F 30.33 in NE 8.1 mph 3.7 mph 87% 0.00 in 0.00 W/m2 OVC
02:49 32.9 °F 29.5 °F 30.34 in NNE 8.0 mph 3.2 mph 87% 0.00 in 0.00 W/m2 OVC
02:54 32.9 °F 29.5 °F 30.34 in North 8.1 mph 3.1 mph 87% 0.00 in 0.00 W/m2 OVC
02:59 32.8 °F 29.4 °F 30.34 in NE 6.9 mph 4.5 mph 87% 0.00 in 0.00 W/m2 OVC
03:04 32.8 °F 29.6 °F 30.34 in North 3.5 mph 2.7 mph 88% 0.00 in 0.00 W/m2 OVC
03:09 32.8 °F 29.4 °F 30.34 in NNE 8.1 mph 4.1 mph 87% 0.00 in 0.00 W/m2 OVC
03:14 32.8 °F 29.4 °F 30.34 in NNW 3.5 mph 2.6 mph 87% 0.00 in 0.00 W/m2 OVC
03:19 32.8 °F 29.4 °F 30.33 in NE 5.0 mph 2.0 mph 87% 0.00 in 0.00 W/m2 OVC
03:24 32.8 °F 29.4 °F 30.33 in NNE 4.0 mph 2.7 mph 87% 0.00 in 0.00 W/m2 OVC
03:29 32.7 °F 29.3 °F 30.33 in North 3.5 mph 1.0 mph 87% 0.00 in 0.00 W/m2 OVC
03:34 32.7 °F 29.3 °F 30.33 in NE 3.5 mph 2.6 mph 87% 0.00 in 0.00 W/m2 OVC
03:39 32.6 °F 29.2 °F 30.33 in NE 6.9 mph 4.0 mph 87% 0.00 in 0.00 W/m2 OVC
03:44 32.5 °F 29.1 °F 30.32 in NNE 4.6 mph 3.2 mph 87% 0.00 in 0.00 W/m2 OVC
03:49 32.5 °F 29.1 °F 30.33 in NNE 4.6 mph 2.4 mph 87% 0.00 in 0.00 W/m2 OVC
03:54 32.5 °F 28.8 °F 30.33 in NE 6.9 mph 3.1 mph 86% 0.00 in 0.00 W/m2 OVC
03:59 32.5 °F 29.1 °F 30.33 in NNE 4.0 mph 3.6 mph 87% 0.00 in 0.00 W/m2 OVC
04:04 32.5 °F 29.1 °F 30.33 in NE 3.5 mph 2.5 mph 87% 0.00 in 0.00 W/m2 OVC
04:09 32.5 °F 28.8 °F 30.34 in North 3.5 mph 1.7 mph 86% 0.00 in 0.00 W/m2 OVC
04:14 32.5 °F 29.1 °F 30.33 in North 4.0 mph 2.9 mph 87% 0.00 in 0.00 W/m2 OVC
04:19 32.4 °F 28.7 °F 30.34 in NW 5.8 mph 3.3 mph 86% 0.00 in 0.00 W/m2 OVC
04:24 32.4 °F 28.7 °F 30.34 in NNE 5.8 mph 4.8 mph 86% 0.00 in 0.00 W/m2 OVC
04:29 32.4 °F 29.0 °F 30.34 in NNE 2.3 mph 1.0 mph 87% 0.00 in 0.00 W/m2 OVC
04:34 32.4 °F 29.0 °F 30.34 in ENE 3.5 mph 3.6 mph 87% 0.00 in 0.00 W/m2 OVC
04:39 32.4 °F 28.7 °F 30.34 in NNE 4.6 mph 1.7 mph 86% 0.00 in 0.00 W/m2 OVC
04:44 32.3 °F 28.6 °F 30.34 in NE 3.5 mph 1.6 mph 86% 0.00 in 0.00 W/m2 OVC
04:49 32.3 °F 28.6 °F 30.34 in NNE 4.0 mph 2.5 mph 86% 0.00 in 0.00 W/m2 OVC
04:54 32.3 °F 28.6 °F 30.34 in NE 5.0 mph 4.0 mph 86% 0.00 in 0.00 W/m2 OVC
04:59 32.3 °F 28.6 °F 30.34 in NE 4.6 mph 3.1 mph 86% 0.00 in 0.00 W/m2 OVC
05:04 32.3 °F 28.6 °F 30.34 in NE 4.0 mph 2.9 mph 86% 0.00 in 0.00 W/m2 OVC
05:09 32.3 °F 28.6 °F 30.34 in NNE 4.6 mph 3.9 mph 86% 0.00 in 0.00 W/m2 OVC
05:14 32.3 °F 28.6 °F 30.34 in NNE 3.5 mph 3.1 mph 86% 0.00 in 0.00 W/m2 OVC
05:19 32.3 °F 28.9 °F 30.34 in NNE 3.5 mph 2.5 mph 87% 0.00 in 0.00 W/m2 OVC
05:24 32.3 °F 28.9 °F 30.35 in North 4.6 mph 2.5 mph 87% 0.00 in 0.00 W/m2 OVC
05:29 32.3 °F 28.9 °F 30.35 in NE 2.3 mph 2.1 mph 87% 0.00 in 0.00 W/m2 OVC
05:34 32.3 °F 28.9 °F 30.34 in NNE 2.3 mph 1.4 mph 87% 0.00 in 0.00 W/m2 OVC
05:39 32.3 °F 28.9 °F 30.34 in North 3.5 mph   87% 0.00 in 0.00 W/m2 OVC
05:44 32.3 °F 28.9 °F 30.34 in NE 8.1 mph 3.5 mph 87% 0.00 in 0.00 W/m2 OVC
05:49 32.2 °F 28.5 °F 30.34 in NE 4.6 mph 3.6 mph 86% 0.00 in 0.00 W/m2 OVC
05:54 32.0 °F 28.6 °F 30.34 in NNW 3.5 mph 1.9 mph 87% 0.00 in 0.00 W/m2 OVC
05:59 32.0 °F 28.6 °F 30.34 in NNE 3.5 mph 2.8 mph 87% 0.00 in 0.00 W/m2 OVC
06:04 32.0 °F 28.6 °F 30.34 in NNE 3.5 mph 2.3 mph 87% 0.00 in 0.00 W/m2 OVC
06:09 31.9 °F 28.5 °F 30.34 in NNE 3.5 mph 2.5 mph 87% 0.00 in 0.00 W/m2 OVC
06:14 31.8 °F 28.4 °F 30.34 in NNE 3.5 mph 2.0 mph 87% 0.00 in 0.00 W/m2 OVC
06:19 31.7 °F 28.6 °F 30.34 in NNE 4.0 mph 2.3 mph 88% 0.00 in 0.00 W/m2 OVC
06:24 31.5 °F 28.4 °F 30.35 in NNW 3.5 mph 1.8 mph 88% 0.00 in 0.00 W/m2 OVC
06:29 31.4 °F 28.3 °F 30.35 in North 4.0 mph 3.0 mph 88% 0.00 in 0.00 W/m2 OVC
06:34 31.3 °F 28.2 °F 30.35 in North 4.6 mph 3.2 mph 88% 0.00 in 0.00 W/m2 OVC
06:39 31.2 °F 28.3 °F 30.35 in NNE 3.5 mph 2.6 mph 89% 0.00 in 0.00 W/m2 OVC
06:44 31.1 °F 28.2 °F 30.35 in North 3.5 mph 0.8 mph 89% 0.00 in 0.00 W/m2 OVC
06:49 31.1 °F 28.2 °F 30.35 in NNE 3.5 mph 3.2 mph 89% 0.00 in 7.00 W/m2 OVC
06:54 31.2 °F 28.3 °F 30.35 in ENE 3.5 mph 2.0 mph 89% 0.00 in 11.00 W/m2 OVC
06:59 31.2 °F 28.3 °F 30.35 in North 3.5 mph 1.7 mph 89% 0.00 in 9.00 W/m2 OVC
07:04 31.2 °F 28.3 °F 30.35 in NNE 2.3 mph 1.0 mph 89% 0.00 in 7.00 W/m2 OVC
07:09 31.3 °F 28.4 °F 30.35 in NE 3.5 mph 2.0 mph 89% 0.00 in 11.00 W/m2 OVC
07:14 31.4 °F 28.5 °F 30.35 in NNE 3.5 mph 2.1 mph 89% 0.00 in 14.00 W/m2 OVC
07:19 31.4 °F 28.5 °F 30.35 in NNE 8.1 mph 2.0 mph 89% 0.00 in 18.00 W/m2 OVC
07:24 31.5 °F 28.6 °F 30.34 in NE 3.5 mph 1.2 mph 89% 0.00 in 19.00 W/m2 OVC
07:29 31.6 °F 28.7 °F 30.35 in NNE 5.8 mph 2.9 mph 89% 0.00 in 25.00 W/m2 OVC
07:34 31.8 °F 28.9 °F 30.35 in NNE 4.6 mph 2.1 mph 89% 0.00 in 30.00 W/m2 OVC
07:39 31.9 °F 29.0 °F 30.35 in NE 6.0 mph 2.9 mph 89% 0.00 in 40.00 W/m2 OVC
07:44 32.0 °F 29.1 °F 30.35 in NE 3.5 mph 1.5 mph 89% 0.00 in 32.00 W/m2 OVC
07:49 32.1 °F 28.9 °F 30.35 in NNW 9.2 mph 4.2 mph 88% 0.00 in 30.00 W/m2 OVC
07:54 32.1 °F 28.7 °F 30.35 in ENE 11.5 mph 1.9 mph 87% 0.00 in 33.00 W/m2 OVC
07:59 32.1 °F 28.9 °F 30.35 in East 8.1 mph 4.4 mph 88% 0.00 in 33.00 W/m2 OVC
08:04 32.1 °F 28.9 °F 30.35 in ENE 4.6 mph 1.2 mph 88% 0.00 in 28.00 W/m2 OVC
08:09 32.1 °F 28.7 °F 30.35 in ENE 8.1 mph 3.0 mph 87% 0.00 in 23.00 W/m2 OVC
08:14 32.0 °F 28.6 °F 30.35 in NNE 5.8 mph 3.7 mph 87% 0.00 in 19.00 W/m2 OVC
08:19 31.9 °F 28.5 °F 30.34 in ENE 9.2 mph 4.4 mph 87% 0.00 in 19.00 W/m2 OVC
08:24 31.9 °F 28.5 °F 30.34 in East 9.2 mph 3.3 mph 87% 0.00 in 25.00 W/m2 OVC
08:29 31.9 °F 28.5 °F 30.35 in NE 6.9 mph 2.2 mph 87% 0.00 in 46.00 W/m2 OVC
08:34 32.0 °F 28.6 °F 30.35 in NNE 4.0 mph 2.0 mph 87% 0.00 in 69.00 W/m2 OVC
08:39 32.5 °F 29.3 °F 30.35 in East 6.9 mph 5.3 mph 88% 0.00 in 84.00 W/m2 OVC
08:44 32.8 °F 29.1 °F 30.36 in North 6.9 mph 3.7 mph 86% 0.00 in 84.00 W/m2 OVC
08:49 33.0 °F 29.0 °F 30.35 in ENE 5.8 mph 3.4 mph 85% 0.00 in 79.00 W/m2 OVC
08:54 33.2 °F 29.2 °F 30.35 in NNE 4.6 mph 4.5 mph 85% 0.00 in 72.00 W/m2 OVC
08:59 33.5 °F 29.5 °F 30.35 in NNE 3.5 mph 1.9 mph 85% 0.00 in 83.00 W/m2 OVC
09:04 33.7 °F 29.4 °F 30.35 in ENE 6.9 mph 2.1 mph 84% 0.00 in 70.00 W/m2 BKN
09:09 33.9 °F 29.6 °F 30.35 in NNE 6.0 mph 1.7 mph 84% 0.00 in 79.00 W/m2 BKN
09:14 34.2 °F 29.6 °F 30.35 in ENE 8.1 mph 3.3 mph 83% 0.00 in 109.00 W/m2 BKN
09:19 34.5 °F 29.6 °F 30.36 in East 8.1 mph 2.3 mph 82% 0.00 in 144.00 W/m2 BKN
09:24 35.0 °F 30.4 °F 30.36 in NNE 3.5 mph 1.3 mph 83% 0.00 in 148.00 W/m2 BKN
09:29 35.5 °F 30.5 °F 30.36 in South 2.3 mph 0.7 mph 82% 0.00 in 141.00 W/m2 BKN
09:34 36.0 °F 30.7 °F 30.36 in NE 8.1 mph 4.5 mph 81% 0.00 in 137.00 W/m2 BKN
09:39 36.0 °F 30.1 °F 30.36 in ENE 3.5 mph 3.3 mph 79% 0.00 in 171.00 W/m2 BKN
09:44 36.1 °F 30.5 °F 30.36 in North 5.8 mph 4.3 mph 80% 0.00 in 153.00 W/m2 BKN
09:49 36.4 °F 30.5 °F 30.35 in NE 5.8 mph 1.1 mph 79% 0.00 in 183.00 W/m2 BKN
09:54 36.8 °F 31.5 °F 30.35 in NE 1.2 mph   81% 0.00 in 156.00 W/m2 BKN
09:59 37.1 °F 31.2 °F 30.35 in NE 8.1 mph 2.2 mph 79% 0.00 in 229.00 W/m2 BKN
10:04 37.5 °F 31.3 °F 30.35 in ENE 5.8 mph 3.4 mph 78% 0.00 in 183.00 W/m2 OVC
10:09 37.7 °F 31.8 °F 30.35 in SSE 3.0 mph 1.4 mph 79% 0.00 in 171.00 W/m2 OVC
10:14 38.0 °F 31.4 °F 30.35 in SSE 1.2 mph 0.1 mph 77% 0.00 in 200.00 W/m2 OVC
10:19 38.5 °F 31.9 °F 30.35 in NNE 3.5 mph 1.7 mph 77% 0.00 in 216.00 W/m2 OVC
10:24 38.9 °F 31.6 °F 30.34 in NNW 4.0 mph 2.0 mph 75% 0.00 in 230.00 W/m2 OVC
10:29 39.1 °F 31.8 °F 30.34 in NNE 2.3 mph 0.6 mph 75% 0.00 in 193.00 W/m2 OVC
10:34 39.2 °F 31.6 °F 30.34 in North 5.0 mph 1.9 mph 74% 0.00 in 218.00 W/m2 OVC
10:39 39.1 °F 31.2 °F 30.34 in North 3.5 mph 2.0 mph 73% 0.00 in 146.00 W/m2 OVC
10:44 38.5 °F 30.6 °F 30.34 in NE 2.3 mph 0.5 mph 73% 0.00 in 132.00 W/m2 OVC
10:49 38.3 °F 31.1 °F 30.34 in SE 9.2 mph 2.3 mph 75% 0.00 in 125.00 W/m2 OVC
10:54 38.4 °F 31.5 °F 30.33 in ENE 1.2 mph 0.6 mph 76% 0.00 in 120.00 W/m2 OVC
10:59 38.6 °F 31.4 °F 30.32 in ENE 10.4 mph 3.8 mph 75% 0.00 in 105.00 W/m2 OVC
11:04 38.7 °F 31.8 °F 30.32 in NNW 4.6 mph 2.0 mph 76% 0.00 in 118.00 W/m2 BKN
11:09 38.9 °F 32.0 °F 30.33 in ENE 1.2 mph 0.3 mph 76% 0.00 in 118.00 W/m2 BKN
11:14 39.1 °F 31.5 °F 30.32 in ENE 3.5 mph 1.6 mph 74% 0.00 in 130.00 W/m2 BKN
11:19 39.0 °F 31.4 °F 30.32 in NNE 9.0 mph 2.9 mph 74% 0.00 in 130.00 W/m2 BKN
11:24 39.1 °F 31.8 °F 30.32 in NE 3.5 mph 0.5 mph 75% 0.00 in 121.00 W/m2 BKN
11:29 39.2 °F 31.3 °F 30.32 in North 3.5 mph 2.0 mph 73% 0.00 in 109.00 W/m2 BKN
11:34 39.3 °F 31.4 °F 30.32 in NNE 3.5 mph 2.1 mph 73% 0.00 in 107.00 W/m2 BKN
11:39 39.3 °F 31.7 °F 30.32 in NNE 4.6 mph 2.5 mph 74% 0.00 in 120.00 W/m2 BKN
11:44 39.5 °F 31.9 °F 30.32 in ENE 5.8 mph 2.4 mph 74% 0.00 in 130.00 W/m2 BKN
11:49 39.6 °F 31.7 °F 30.31 in NE 4.6 mph 3.2 mph 73% 0.00 in 169.00 W/m2 BKN
11:54 39.5 °F 30.9 °F 30.31 in NE 10.4 mph 5.8 mph 71% 0.00 in 169.00 W/m2 BKN
11:59 39.5 °F 31.2 °F 30.31 in East 3.5 mph 1.1 mph 72% 0.00 in 111.00 W/m2 BKN
12:04 39.7 °F 31.1 °F 30.30 in ENE 4.6 mph 3.5 mph 71% 0.00 in 104.00 W/m2 BKN
12:09 39.8 °F 32.5 °F 30.29 in NE 5.0 mph 4.8 mph 75% 0.00 in 97.00 W/m2 BKN
12:14 39.8 °F 31.5 °F 30.29 in North 9.2 mph 5.9 mph 72% 0.00 in 91.00 W/m2 BKN
12:19 39.7 °F 31.4 °F 30.30 in North 3.5 mph 1.7 mph 72% 0.00 in 98.00 W/m2 BKN
12:24 39.7 °F 31.4 °F 30.29 in ENE 5.8 mph 3.1 mph 72% 0.00 in 128.00 W/m2 BKN
12:29 39.7 °F 31.4 °F 30.29 in NNE 6.9 mph 3.8 mph 72% 0.00 in 120.00 W/m2 BKN
12:34 39.7 °F 32.1 °F 30.29 in NW 5.0 mph 1.8 mph 74% 0.00 in 113.00 W/m2 BKN
12:39 40.0 °F 32.0 °F 30.28 in NE 8.1 mph 4.0 mph 73% 0.00 in 109.00 W/m2 BKN
12:44 40.0 °F 31.7 °F 30.28 in North 4.6 mph 2.5 mph 72% 0.00 in 104.00 W/m2 BKN
12:49 40.1 °F 32.1 °F 30.28 in NE 4.0 mph 3.0 mph 73% 0.00 in 102.00 W/m2 BKN
12:54 40.2 °F 31.5 °F 30.27 in North 10.4 mph 7.0 mph 71% 0.00 in 111.00 W/m2 BKN
12:59 40.1 °F 31.8 °F 30.27 in NE 4.0 mph 2.8 mph 72% 0.00 in 102.00 W/m2 BKN
13:04 40.2 °F 31.9 °F 30.27 in NNE 4.0 mph 2.6 mph 72% 0.00 in 95.00 W/m2 OVC
13:09 40.2 °F 32.2 °F 30.27 in NNE 5.0 mph 2.2 mph 73% 0.00 in 90.00 W/m2 OVC
13:14 40.1 °F 31.8 °F 30.27 in NE 8.1 mph 4.1 mph 72% 0.00 in 91.00 W/m2 OVC
13:19 39.9 °F 31.6 °F 30.27 in NE 4.6 mph 1.4 mph 72% 0.00 in 83.00 W/m2 OVC
13:24 39.9 °F 32.3 °F 30.26 in North 3.5 mph 0.8 mph 74% 0.00 in 102.00 W/m2 OVC
13:29 40.2 °F 32.2 °F 30.27 in NNW 6.9 mph 3.2 mph 73% 0.00 in 91.00 W/m2 OVC
13:34 40.3 °F 32.0 °F 30.27 in NE 3.5 mph 1.5 mph 72% 0.00 in 77.00 W/m2 OVC
13:39 40.4 °F 32.4 °F 30.27 in NNW 4.6 mph 4.2 mph 73% 0.00 in 83.00 W/m2 OVC
13:44 40.2 °F 32.2 °F 30.26 in NE 5.0 mph 2.7 mph 73% 0.00 in 100.00 W/m2 OVC
13:49 40.2 °F 31.5 °F 30.27 in North 9.2 mph 5.7 mph 71% 0.00 in 95.00 W/m2 OVC
13:54 40.0 °F 32.4 °F 30.26 in NNE 4.0 mph 1.9 mph 74% 0.00 in 95.00 W/m2 OVC
13:59 40.0 °F 31.7 °F 30.26 in NE 5.8 mph 4.3 mph 72% 0.00 in 120.00 W/m2 OVC
14:04 40.1 °F 32.5 °F 30.25 in NNE 4.0 mph 3.8 mph 74% 0.00 in 79.00 W/m2 OVC
14:09 40.3 °F 32.0 °F 30.25 in NNE 6.9 mph 3.2 mph 72% 0.00 in 70.00 W/m2 OVC
14:14 40.2 °F 31.9 °F 30.25 in NE 3.5 mph 1.1 mph 72% 0.00 in 58.00 W/m2 OVC
14:19 40.1 °F 31.8 °F 30.25 in NNW 4.6 mph 3.4 mph 72% 0.00 in 74.00 W/m2 OVC
14:24 40.1 °F 32.1 °F 30.25 in North 8.1 mph 3.7 mph 73% 0.00 in 69.00 W/m2 OVC
14:29 40.0 °F 31.7 °F 30.25 in NE 10.4 mph 5.6 mph 72% 0.00 in 62.00 W/m2 OVC
14:34 39.9 °F 31.9 °F 30.25 in North 3.5 mph 1.2 mph 73% 0.00 in 51.00 W/m2 OVC
14:39 40.0 °F 32.0 °F 30.25 in NNE 8.1 mph 3.2 mph 73% 0.00 in 32.00 W/m2 OVC
14:44 39.8 °F 32.2 °F 30.25 in NNE 8.0 mph 3.8 mph 74% 0.00 in 28.00 W/m2 OVC
14:49 39.7 °F 32.1 °F 30.25 in NNE 4.0 mph 2.0 mph 74% 0.00 in 25.00 W/m2 OVC
14:54 39.7 °F 32.4 °F 30.25 in North 9.2 mph 4.6 mph 75% 0.00 in 25.00 W/m2 OVC
14:59 39.6 °F 32.3 °F 30.25 in NNW 5.8 mph 2.8 mph 75% 0.00 in 23.00 W/m2 OVC
15:04 39.5 °F 32.6 °F 30.25 in NNW 9.0 mph 4.2 mph 76% 0.00 in 18.00 W/m2 OVC
15:09 39.3 °F 32.4 °F 30.25 in NNW 3.5 mph 1.3 mph 76% 0.00 in 16.00 W/m2 OVC
15:14 39.2 °F 32.9 °F 30.24 in North 3.5 mph 2.8 mph 78% 0.00 in 18.00 W/m2 OVC
15:19 39.1 °F 32.5 °F 30.25 in NNW 10.4 mph 6.4 mph 77% 0.00 in 12.00 W/m2 OVC
15:24 38.8 °F 32.2 °F 30.25 in North 4.0 mph 4.7 mph 77% 0.00 in 14.00 W/m2 OVC
15:29 38.7 °F 32.1 °F 30.25 in NW 6.9 mph 3.6 mph 77% 0.00 in 12.00 W/m2 OVC
15:34 38.6 °F 32.0 °F 30.25 in WNW 6.9 mph 3.8 mph 77% 0.00 in 12.00 W/m2 OVC
15:39 38.4 °F 31.8 °F 30.25 in North 4.6 mph 2.2 mph 77% 0.00 in 12.00 W/m2 OVC
15:44 38.4 °F 32.1 °F 30.25 in North 8.1 mph 4.4 mph 78% 0.00 in 9.00 W/m2 OVC
15:49 38.3 °F 32.0 °F 30.24 in NNE 3.5 mph 1.1 mph 78% 0.00 in 7.00 W/m2 OVC
15:54 38.3 °F 32.4 °F 30.25 in NNE 4.0 mph 1.3 mph 79% 0.00 in 7.00 W/m2 OVC
15:59 38.2 °F 32.3 °F 30.25 in NNW 4.6 mph 3.2 mph 79% 0.00 in 7.00 W/m2 OVC
16:04 38.0 °F 31.7 °F 30.25 in NE 9.2 mph 2.7 mph 78% 0.00 in 7.00 W/m2 OVC
16:09 37.8 °F 32.2 °F 30.25 in North 2.3 mph 1.3 mph 80% 0.00 in 7.00 W/m2 OVC
16:14 37.6 °F 31.7 °F 30.25 in North 5.0 mph 3.7 mph 79% 0.00 in 7.00 W/m2 OVC
16:19 37.5 °F 31.6 °F 30.25 in North 9.2 mph 5.3 mph 79% 0.00 in 5.00 W/m2 OVC
16:24 37.4 °F 32.1 °F 30.25 in NNE 9.2 mph 5.9 mph 81% 0.00 in 0.00 W/m2 OVC
16:29 37.3 °F 31.7 °F 30.25 in NNE 8.1 mph 5.2 mph 80% 0.00 in 0.00 W/m2 OVC
16:34 37.1 °F 31.5 °F 30.25 in NNW 8.1 mph 4.8 mph 80% 0.00 in 0.00 W/m2 OVC
16:39 37.0 °F 31.4 °F 30.25 in NNE 11.5 mph 5.1 mph 80% 0.00 in 0.00 W/m2 OVC
16:44 36.9 °F 31.3 °F 30.25 in ENE 3.5 mph 1.7 mph 80% 0.00 in 0.00 W/m2 OVC
16:49 36.8 °F 31.2 °F 30.25 in North 11.5 mph 6.7 mph 80% 0.00 in 0.00 W/m2 OVC
16:54 36.8 °F 31.2 °F 30.25 in North 4.6 mph 2.4 mph 80% 0.00 in 0.00 W/m2 OVC
16:59 36.7 °F 31.1 °F 30.25 in NW 4.6 mph 3.7 mph 80% 0.00 in 0.00 W/m2 OVC
17:04 36.7 °F 31.1 °F 30.25 in NNW 3.5 mph 0.2 mph 80% 0.00 in 0.00 W/m2 -RA
17:09 36.6 °F 31.0 °F 30.26 in North 7.0 mph 3.4 mph 80% 0.00 in 0.00 W/m2 -RA
17:14 36.5 °F 30.9 °F 30.26 in NNE 4.6 mph 2.2 mph 80% 0.00 in 0.00 W/m2 -RA
17:19 36.5 °F 30.9 °F 30.26 in East 6.9 mph 3.3 mph 80% 0.00 in 0.00 W/m2 -RA
17:24 36.4 °F 30.8 °F 30.26 in NNE 3.5 mph 1.3 mph 80% 0.00 in 0.00 W/m2 -RA
17:29 36.4 °F 31.1 °F 30.27 in NNE 5.8 mph 4.3 mph 81% 0.00 in 0.00 W/m2 -RA
17:34 36.4 °F 31.1 °F 30.27 in North 3.5 mph 2.6 mph 81% 0.00 in 0.00 W/m2 -RA
17:39 36.3 °F 30.7 °F 30.27 in NNE 3.5 mph 1.3 mph 80% 0.00 in 0.00 W/m2 -RA
17:44 36.3 °F 31.0 °F 30.27 in NE 3.0 mph 0.2 mph 81% 0.00 in 0.00 W/m2 -RA
17:49 36.3 °F 31.0 °F 30.27 in NE 2.3 mph 1.5 mph 81% 0.00 in 0.00 W/m2 -RA
17:54 36.2 °F 31.2 °F 30.28 in NNE 4.6 mph 3.5 mph 82% 0.00 in 0.00 W/m2 -RA
17:59 36.2 °F 30.9 °F 30.28 in North 4.6 mph 2.2 mph 81% 0.00 in 0.00 W/m2 -RA
18:04 36.3 °F 31.0 °F 30.29 in NNW 3.5 mph 1.8 mph 81% 0.00 in 0.00 W/m2 -SN
18:09 36.3 °F 31.0 °F 30.28 in NNE 3.5 mph 1.3 mph 81% 0.00 in 0.00 W/m2 -SN
18:14 36.2 °F 30.9 °F 30.27 in NNE 5.0 mph 2.8 mph 81% 0.00 in 0.00 W/m2 -SN
18:19 36.1 °F 30.8 °F 30.27 in NNE 6.0 mph 2.9 mph 81% 0.00 in 0.00 W/m2 -SN
18:24 36.1 °F 30.8 °F 30.27 in NNE 4.0 mph 2.2 mph 81% 0.00 in 0.00 W/m2 -SN
18:29 35.9 °F 30.6 °F 30.26 in NNE 4.6 mph 2.4 mph 81% 0.00 in 0.00 W/m2 -SN
18:34 35.9 °F 31.2 °F 30.28 in NW 2.3 mph 0.8 mph 83% 0.00 in 0.00 W/m2 -SN
18:39 36.0 °F 31.3 °F 30.28 in NW 4.6 mph 2.6 mph 83% 0.00 in 0.00 W/m2 -SN
18:44 35.9 °F 30.9 °F 30.28 in NNW 2.3 mph 2.0 mph 82% 0.00 in 0.00 W/m2 -SN
18:49 35.9 °F 31.2 °F 30.28 in NW 1.2 mph 0.7 mph 83% 0.00 in 0.00 W/m2 -SN
18:54 35.8 °F 31.1 °F 30.28 in NNE 3.5 mph 2.6 mph 83% 0.00 in 0.00 W/m2 -SN
18:59 35.7 °F 31.0 °F 30.27 in NNW 8.1 mph 3.9 mph 83% 0.00 in 0.00 W/m2 -SN
19:04 35.6 °F 31.2 °F 30.27 in NNE 8.1 mph 4.9 mph 84% 0.00 in 0.00 W/m2 -SN
19:09 35.2 °F 31.1 °F 30.27 in NNE 5.8 mph 3.5 mph 85% 0.00 in 0.00 W/m2 -SN
19:14 34.8 °F 31.0 °F 30.27 in NE 5.8 mph 0.3 mph 86% 0.00 in 0.00 W/m2 -SN
19:19 34.5 °F 31.3 °F 30.27 in North 3.5 mph 1.8 mph 88% 0.00 in 0.00 W/m2 -SN
19:24 34.2 °F 31.3 °F 30.27 in North 4.6 mph 2.6 mph 89% 0.00 in 0.00 W/m2 -SN
19:29 33.9 °F 31.3 °F 30.27 in NNE 3.5 mph 1.4 mph 90% 0.00 in 0.00 W/m2 -SN
19:34 33.7 °F 31.4 °F 30.27 in NNE 4.6 mph 1.9 mph 91% 0.00 in 0.00 W/m2 -SN
19:39 33.4 °F 31.1 °F 30.27 in NNE 3.5 mph 1.7 mph 91% 0.00 in 0.00 W/m2 -SN
19:44 33.2 °F 31.1 °F 30.27 in NNE 3.5 mph 2.3 mph 92% 0.00 in 0.00 W/m2 -SN
19:49 33.1 °F 31.0 °F 30.27 in NNE 3.0 mph 1.4 mph 92% 0.00 in 0.00 W/m2 -SN
19:54 32.9 °F 31.1 °F 30.27 in NE 3.5 mph 1.3 mph 93% 0.00 in 0.00 W/m2 -SN
19:59 32.9 °F 31.1 °F 30.27 in NNE 2.3 mph 1.0 mph 93% 0.00 in 0.00 W/m2 -SN
20:04 32.8 °F 31.0 °F 30.27 in NNW 3.5 mph 1.2 mph 93% 0.00 in 0.00 W/m2 -SN
20:09 32.8 °F 31.3 °F 30.27 in NNW 2.3 mph 1.2 mph 94% 0.00 in 0.00 W/m2 -SN
20:14 32.8 °F 31.3 °F 30.28 in North 2.3 mph 0.9 mph 94% 0.00 in 0.00 W/m2 -SN
20:19 32.7 °F 31.2 °F 30.28 in North 3.5 mph 2.0 mph 94% 0.00 in 0.00 W/m2 -SN
20:24 32.7 °F 31.2 °F 30.27 in NNE 3.0 mph 1.5 mph 94% 0.00 in 0.00 W/m2 -SN
20:29 32.6 °F 31.1 °F 30.28 in NNE 3.5 mph 1.6 mph 94% 0.00 in 0.00 W/m2 -SN
20:34 32.6 °F 31.1 °F 30.28 in NNW 2.3 mph 0.3 mph 94% 0.00 in 0.00 W/m2 -SN
20:39 32.6 °F 31.3 °F 30.28 in North 2.3 mph 1.3 mph 95% 0.00 in 0.00 W/m2 -SN
20:44 32.6 °F 31.3 °F 30.28 in NNE 2.3 mph 2.0 mph 95% 0.00 in 0.00 W/m2 -SN
20:49 32.5 °F 31.2 °F 30.27 in North 3.5 mph 1.6 mph 95% 0.00 in 0.00 W/m2 -SN
20:54 32.5 °F 31.2 °F 30.27 in NNE 3.5 mph 0.9 mph 95% 0.00 in 0.00 W/m2 -SN
20:59 32.5 °F 31.2 °F 30.27 in NNW 3.5 mph 1.0 mph 95% 0.00 in 0.00 W/m2 -SN
21:04 32.5 °F 31.2 °F 30.27 in NE 3.5 mph 1.5 mph 95% 0.00 in 0.00 W/m2 -SN
21:09 32.5 °F 31.2 °F 30.27 in NNE 3.5 mph 1.3 mph 95% 0.00 in 0.00 W/m2 -SN
21:14 32.5 °F 31.2 °F 30.27 in NNE 3.5 mph 1.6 mph 95% 0.00 in 0.00 W/m2 -SN
21:19 32.5 °F 31.2 °F 30.27 in NNE 3.5 mph 1.6 mph 95% 0.00 in 0.00 W/m2 -SN
21:24 32.5 °F 31.2 °F 30.27 in North 3.5 mph 1.4 mph 95% 0.00 in 0.00 W/m2 -SN
21:29 32.4 °F 31.1 °F 30.27 in NNE 3.0 mph 1.3 mph 95% 0.00 in 0.00 W/m2 -SN
21:34 32.4 °F 31.1 °F 30.27 in NNE 4.0 mph 2.0 mph 95% 0.00 in 0.00 W/m2 -SN
21:39 32.4 °F 31.1 °F 30.27 in North 3.5 mph 0.3 mph 95% 0.00 in 0.00 W/m2 -SN
21:44 32.4 °F 31.1 °F 30.26 in Calm     95% 0.00 in 0.00 W/m2 -SN
21:49 32.4 °F 31.1 °F 30.26 in Calm     95% 0.00 in 0.00 W/m2 -SN
21:54 32.5 °F 31.2 °F 30.26 in Calm     95% 0.00 in 0.00 W/m2 -SN
21:59 32.4 °F 31.4 °F 30.26 in Calm     96% 0.00 in 0.00 W/m2 -SN
22:04 32.4 °F 31.4 °F 30.26 in Calm     96% 0.00 in 0.00 W/m2 -SN
22:09 32.4 °F 31.4 °F 30.26 in Calm     96% 0.00 in 0.00 W/m2 -SN
22:14 32.4 °F 31.4 °F 30.26 in Calm     96% 0.00 in 0.00 W/m2 -SN
22:19 32.4 °F 31.1 °F 30.25 in Calm     95% 0.00 in 0.00 W/m2 -SN
22:24 32.4 °F 31.1 °F 30.25 in Calm     95% 0.00 in 0.00 W/m2 -SN
22:29 32.4 °F 31.1 °F 30.25 in Calm     95% 0.00 in 0.00 W/m2 -SN
22:34 32.4 °F 31.4 °F 30.24 in Calm     96% 0.00 in 0.00 W/m2 -SN
22:39 32.3 °F 31.3 °F 30.24 in Calm     96% 0.00 in 0.00 W/m2 -SN
22:44 32.3 °F 31.3 °F 30.24 in Calm     96% 0.00 in 0.00 W/m2 -SN
22:49 32.3 °F 31.3 °F 30.23 in Calm     96% 0.00 in 0.00 W/m2 -SN
22:54 32.3 °F 31.3 °F 30.23 in Calm     96% 0.00 in 0.00 W/m2 -SN
22:59 32.3 °F 31.3 °F 30.23 in Calm     96% 0.00 in 0.00 W/m2 -SN
23:04 32.3 °F 31.3 °F 30.23 in Calm     96% 0.00 in 0.00 W/m2 -RA
23:09 32.3 °F 31.3 °F 30.23 in Calm     96% 0.00 in 0.00 W/m2 -RA
23:14 32.3 °F 31.3 °F 30.23 in Calm     96% 0.00 in 0.00 W/m2 -RA
23:19 32.3 °F 31.3 °F 30.22 in Calm     96% 0.00 in 0.00 W/m2 -RA
23:24 32.3 °F 31.3 °F 30.22 in Calm     96% 0.00 in 0.00 W/m2 -RA
23:29 32.3 °F 31.3 °F 30.21 in Calm     96% 0.00 in 0.00 W/m2 -RA
23:34 32.3 °F 31.3 °F 30.21 in Calm     96% 0.00 in 0.00 W/m2 -RA
23:39 32.3 °F 31.3 °F 30.21 in Calm     96% 0.00 in 0.00 W/m2 -RA
23:44 32.3 °F 31.3 °F 30.21 in Calm     96% 0.00 in 0.00 W/m2 -RA
23:49 32.3 °F 31.3 °F 30.21 in Calm     96% 0.00 in 0.00 W/m2 -RA
23:54 32.3 °F 31.3 °F 30.21 in Calm     96% 0.00 in 0.00 W/m2 -RA
23:59 32.3 °F 31.3 °F 30.20 in Calm     96% 0.00 in 0.00 W/m2 -RA
Fulton, MO, USA
Compliments of Weather Underground - 2.25 mb